sensor_id;sensor_type;location;lat;lon;timestamp;pressure;altitude;pressure_sealevel;temperature
32039;BMP280;18549;42.286;22.688;2024-02-15T00:00:07;96029.56;;;7.48
32039;BMP280;18549;42.286;22.688;2024-02-15T00:02:35;96031.50;;;7.41
32039;BMP280;18549;42.286;22.688;2024-02-15T00:05:02;96034.84;;;7.40
32039;BMP280;18549;42.286;22.688;2024-02-15T00:07:32;96039.78;;;7.40
32039;BMP280;18549;42.286;22.688;2024-02-15T00:10:04;96047.22;;;7.39
32039;BMP280;18549;42.286;22.688;2024-02-15T00:12:32;96046.59;;;7.35
32039;BMP280;18549;42.286;22.688;2024-02-15T00:14:59;96050.63;;;7.36
32039;BMP280;18549;42.286;22.688;2024-02-15T00:17:29;96047.38;;;7.36
32039;BMP280;18549;42.286;22.688;2024-02-15T00:19:57;96050.72;;;7.35
32039;BMP280;18549;42.286;22.688;2024-02-15T00:22:25;96050.63;;;7.36
32039;BMP280;18549;42.286;22.688;2024-02-15T00:24:53;96056.44;;;7.35
32039;BMP280;18549;42.286;22.688;2024-02-15T00:27:21;96057.19;;;7.37
32039;BMP280;18549;42.286;22.688;2024-02-15T00:29:49;96059.91;;;7.31
32039;BMP280;18549;42.286;22.688;2024-02-15T00:32:17;96051.84;;;7.28
32039;BMP280;18549;42.286;22.688;2024-02-15T00:34:46;96052.84;;;7.24
32039;BMP280;18549;42.286;22.688;2024-02-15T00:37:14;96057.19;;;7.19
32039;BMP280;18549;42.286;22.688;2024-02-15T00:39:44;96061.19;;;7.22
32039;BMP280;18549;42.286;22.688;2024-02-15T00:42:11;96057.25;;;7.18
32039;BMP280;18549;42.286;22.688;2024-02-15T00:44:39;96061.28;;;7.19
32039;BMP280;18549;42.286;22.688;2024-02-15T00:47:07;96062.16;;;6.99
32039;BMP280;18549;42.286;22.688;2024-02-15T00:49:36;96059.50;;;7.04
32039;BMP280;18549;42.286;22.688;2024-02-15T00:52:05;96065.09;;;7.07
32039;BMP280;18549;42.286;22.688;2024-02-15T00:54:35;96057.19;;;7.01
32039;BMP280;18549;42.286;22.688;2024-02-15T00:57:04;96057.78;;;7.06
32039;BMP280;18549;42.286;22.688;2024-02-15T00:59:31;96060.84;;;7.11
32039;BMP280;18549;42.286;22.688;2024-02-15T01:02:01;96066.16;;;7.02
32039;BMP280;18549;42.286;22.688;2024-02-15T01:04:29;96064.81;;;6.95
32039;BMP280;18549;42.286;22.688;2024-02-15T01:06:57;96071.34;;;6.96
32039;BMP280;18549;42.286;22.688;2024-02-15T01:09:31;96070.09;;;7.06
32039;BMP280;18549;42.286;22.688;2024-02-15T01:11:59;96066.09;;;7.03
32039;BMP280;18549;42.286;22.688;2024-02-15T01:14:27;96068.69;;;7.00
32039;BMP280;18549;42.286;22.688;2024-02-15T01:16:57;96068.06;;;6.95
32039;BMP280;18549;42.286;22.688;2024-02-15T01:19:23;96071.88;;;7.02
32039;BMP280;18549;42.286;22.688;2024-02-15T01:21:50;96063.44;;;7.08
32039;BMP280;18549;42.286;22.688;2024-02-15T01:24:20;96069.03;;;7.11
32039;BMP280;18549;42.286;22.688;2024-02-15T01:26:49;96068.97;;;7.13
32039;BMP280;18549;42.286;22.688;2024-02-15T01:29:16;96064.03;;;7.13
32039;BMP280;18549;42.286;22.688;2024-02-15T01:31:43;96063.66;;;7.22
32039;BMP280;18549;42.286;22.688;2024-02-15T01:34:13;96066.63;;;7.28
32039;BMP280;18549;42.286;22.688;2024-02-15T01:36:43;96069.03;;;7.29
32039;BMP280;18549;42.286;22.688;2024-02-15T01:39:12;96063.16;;;7.32
32039;BMP280;18549;42.286;22.688;2024-02-15T01:41:39;96049.09;;;7.34
32039;BMP280;18549;42.286;22.688;2024-02-15T01:44:07;96050.63;;;7.36
32039;BMP280;18549;42.286;22.688;2024-02-15T01:46:36;96057.09;;;7.21
32039;BMP280;18549;42.286;22.688;2024-02-15T01:49:05;96059.50;;;7.22
32039;BMP280;18549;42.286;22.688;2024-02-15T01:51:33;96067.75;;;7.03
32039;BMP280;18549;42.286;22.688;2024-02-15T01:54:04;96050.38;;;7.06
32039;BMP280;18549;42.286;22.688;2024-02-15T01:56:32;96057.09;;;7.21
32039;BMP280;18549;42.286;22.688;2024-02-15T01:59:02;96050.31;;;7.25
32039;BMP280;18549;42.286;22.688;2024-02-15T02:01:35;96055.22;;;7.25
32039;BMP280;18549;42.286;22.688;2024-02-15T02:04:06;96064.59;;;7.19
32039;BMP280;18549;42.286;22.688;2024-02-15T02:06:37;96054.63;;;7.21
32039;BMP280;18549;42.286;22.688;2024-02-15T02:09:05;96058.81;;;7.19
32039;BMP280;18549;42.286;22.688;2024-02-15T02:11:36;96051.31;;;7.22
32039;BMP280;18549;42.286;22.688;2024-02-15T02:14:03;96056.16;;;7.23
32039;BMP280;18549;42.286;22.688;2024-02-15T02:16:38;96063.66;;;7.22
32039;BMP280;18549;42.286;22.688;2024-02-15T02:19:06;96061.91;;;7.23
32039;BMP280;18549;42.286;22.688;2024-02-15T02:21:36;96061.84;;;7.25
32039;BMP280;18549;42.286;22.688;2024-02-15T02:24:13;96057.00;;;7.23
32039;BMP280;18549;42.286;22.688;2024-02-15T02:26:48;96057.84;;;7.22
32039;BMP280;18549;42.286;22.688;2024-02-15T02:29:16;96060.69;;;7.14
32039;BMP280;18549;42.286;22.688;2024-02-15T02:31:42;96056.69;;;7.11
32039;BMP280;18549;42.286;22.688;2024-02-15T02:34:12;96059.31;;;7.08
32039;BMP280;18549;42.286;22.688;2024-02-15T02:36:43;96058.94;;;6.97
32039;BMP280;18549;42.286;22.688;2024-02-15T02:39:11;96059.22;;;6.91
32039;BMP280;18549;42.286;22.688;2024-02-15T02:41:39;96069.34;;;7.04
32039;BMP280;18549;42.286;22.688;2024-02-15T02:44:08;96072.81;;;7.00
32039;BMP280;18549;42.286;22.688;2024-02-15T02:46:35;96066.28;;;6.99
32039;BMP280;18549;42.286;22.688;2024-02-15T02:49:03;96076.88;;;7.01
32039;BMP280;18549;42.286;22.688;2024-02-15T02:51:32;96069.50;;;7.01
32039;BMP280;18549;42.286;22.688;2024-02-15T02:54:01;96068.03;;;6.97
32039;BMP280;18549;42.286;22.688;2024-02-15T02:56:31;96070.63;;;6.94
32039;BMP280;18549;42.286;22.688;2024-02-15T02:58:58;96069.00;;;6.93
32039;BMP280;18549;42.286;22.688;2024-02-15T03:01:28;96070.25;;;6.83
32039;BMP280;18549;42.286;22.688;2024-02-15T03:03:56;96071.19;;;6.81
32039;BMP280;18549;42.286;22.688;2024-02-15T03:06:23;96080.38;;;6.77
32039;BMP280;18549;42.286;22.688;2024-02-15T03:08:53;96075.31;;;6.80
32039;BMP280;18549;42.286;22.688;2024-02-15T03:11:20;96077.06;;;6.78
32039;BMP280;18549;42.286;22.688;2024-02-15T03:13:49;96081.56;;;6.69
32039;BMP280;18549;42.286;22.688;2024-02-15T03:16:17;96082.34;;;6.69
32039;BMP280;18549;42.286;22.688;2024-02-15T03:18:49;96077.44;;;6.69
32039;BMP280;18549;42.286;22.688;2024-02-15T03:21:17;96079.88;;;6.69
32039;BMP280;18549;42.286;22.688;2024-02-15T03:23:46;96078.22;;;6.50
32039;BMP280;18549;42.286;22.688;2024-02-15T03:26:14;96077.06;;;6.58
32039;BMP280;18549;42.286;22.688;2024-02-15T03:28:41;96081.00;;;6.62
32039;BMP280;18549;42.286;22.688;2024-02-15T03:31:09;96083.34;;;6.65
32039;BMP280;18549;42.286;22.688;2024-02-15T03:33:37;96085.00;;;6.65
32039;BMP280;18549;42.286;22.688;2024-02-15T03:36:06;96085.94;;;6.62
32039;BMP280;18549;42.286;22.688;2024-02-15T03:38:35;96088.38;;;6.43
32039;BMP280;18549;42.286;22.688;2024-02-15T03:41:02;96085.31;;;6.38
32039;BMP280;18549;42.286;22.688;2024-02-15T03:43:32;96078.53;;;6.43
32039;BMP280;18549;42.286;22.688;2024-02-15T03:46:01;96080.03;;;6.47
32039;BMP280;18549;42.286;22.688;2024-02-15T03:48:28;96080.75;;;6.49
32039;BMP280;18549;42.286;22.688;2024-02-15T03:50:57;96084.06;;;6.48
32039;BMP280;18549;42.286;22.688;2024-02-15T03:53:27;96085.06;;;6.44
32039;BMP280;18549;42.286;22.688;2024-02-15T03:55:56;96080.88;;;6.46
32039;BMP280;18549;42.286;22.688;2024-02-15T03:58:23;96094.75;;;6.48
32039;BMP280;18549;42.286;22.688;2024-02-15T04:00:54;96096.50;;;6.45
32039;BMP280;18549;42.286;22.688;2024-02-15T04:03:22;96081.44;;;6.32
32039;BMP280;18549;42.286;22.688;2024-02-15T04:05:50;96083.03;;;6.33
32039;BMP280;18549;42.286;22.688;2024-02-15T04:08:18;96088.00;;;6.32
32039;BMP280;18549;42.286;22.688;2024-02-15T04:10:47;96092.81;;;6.35
32039;BMP280;18549;42.286;22.688;2024-02-15T04:13:17;96087.78;;;6.38
32039;BMP280;18549;42.286;22.688;2024-02-15T04:15:44;96089.34;;;6.39
32039;BMP280;18549;42.286;22.688;2024-02-15T04:18:12;96087.91;;;6.35
32039;BMP280;18549;42.286;22.688;2024-02-15T04:20:39;96088.69;;;6.35
32039;BMP280;18549;42.286;22.688;2024-02-15T04:23:11;96092.88;;;6.33
32039;BMP280;18549;42.286;22.688;2024-02-15T04:25:38;96090.81;;;6.03
32039;BMP280;18549;42.286;22.688;2024-02-15T04:28:09;96089.66;;;6.12
32039;BMP280;18549;42.286;22.688;2024-02-15T04:30:37;96086.16;;;6.17
32039;BMP280;18549;42.286;22.688;2024-02-15T04:33:05;96089.47;;;6.16
32039;BMP280;18549;42.286;22.688;2024-02-15T04:35:33;96094.38;;;6.16
32039;BMP280;18549;42.286;22.688;2024-02-15T04:38:03;96095.19;;;6.17
32039;BMP280;18549;42.286;22.688;2024-02-15T04:40:33;96099.22;;;6.19
32039;BMP280;18549;42.286;22.688;2024-02-15T04:43:02;96101.53;;;6.22
32039;BMP280;18549;42.286;22.688;2024-02-15T04:45:31;96105.84;;;6.17
32039;BMP280;18549;42.286;22.688;2024-02-15T04:47:59;96105.03;;;5.95
32039;BMP280;18549;42.286;22.688;2024-02-15T04:50:28;96107.13;;;5.85
32039;BMP280;18549;42.286;22.688;2024-02-15T04:52:55;96109.69;;;5.82
32039;BMP280;18549;42.286;22.688;2024-02-15T04:55:22;96104.41;;;5.91
32039;BMP280;18549;42.286;22.688;2024-02-15T04:57:53;96106.09;;;5.90
32039;BMP280;18549;42.286;22.688;2024-02-15T05:00:26;96107.97;;;5.84
32039;BMP280;18549;42.286;22.688;2024-02-15T05:02:55;96115.13;;;5.90
32039;BMP280;18549;42.286;22.688;2024-02-15T05:05:22;96107.13;;;5.85
32039;BMP280;18549;42.286;22.688;2024-02-15T05:07:51;96112.84;;;5.85
32039;BMP280;18549;42.286;22.688;2024-02-15T05:10:19;96114.59;;;5.82
32039;BMP280;18549;42.286;22.688;2024-02-15T05:12:46;96117.50;;;5.70
32039;BMP280;18549;42.286;22.688;2024-02-15T05:15:15;96124.59;;;5.77
32039;BMP280;18549;42.286;22.688;2024-02-15T05:17:44;96119.00;;;5.74
32039;BMP280;18549;42.286;22.688;2024-02-15T05:20:16;96124.69;;;5.76
32039;BMP280;18549;42.286;22.688;2024-02-15T05:22:47;96135.16;;;5.81
32039;BMP280;18549;42.286;22.688;2024-02-15T05:25:18;96132.53;;;5.85
32039;BMP280;18549;42.286;22.688;2024-02-15T05:27:49;96124.41;;;5.83
32039;BMP280;18549;42.286;22.688;2024-02-15T05:30:16;96139.84;;;5.87
32039;BMP280;18549;42.286;22.688;2024-02-15T05:32:45;96126.69;;;5.88
32039;BMP280;18549;42.286;22.688;2024-02-15T05:35:19;96135.94;;;5.81
32039;BMP280;18549;42.286;22.688;2024-02-15T05:37:46;96139.16;;;5.83
32039;BMP280;18549;42.286;22.688;2024-02-15T05:40:12;96141.66;;;5.82
32039;BMP280;18549;42.286;22.688;2024-02-15T05:42:42;96153.03;;;5.84
32039;BMP280;18549;42.286;22.688;2024-02-15T05:45:31;96161.25;;;5.85
32039;BMP280;18549;42.286;22.688;2024-02-15T05:48:03;96159.47;;;5.65
32039;BMP280;18549;42.286;22.688;2024-02-15T05:50:33;96166.50;;;5.76
32039;BMP280;18549;42.286;22.688;2024-02-15T05:53:01;96157.56;;;5.73
32039;BMP280;18549;42.286;22.688;2024-02-15T05:55:30;96167.16;;;5.57
32039;BMP280;18549;42.286;22.688;2024-02-15T05:58:01;96168.66;;;5.60
32039;BMP280;18549;42.286;22.688;2024-02-15T06:00:28;96166.59;;;5.73
32039;BMP280;18549;42.286;22.688;2024-02-15T06:02:56;96175.37;;;5.80
32039;BMP280;18549;42.286;22.688;2024-02-15T06:05:28;96175.72;;;5.69
32039;BMP280;18549;42.286;22.688;2024-02-15T06:07:57;96177.84;;;5.80
32039;BMP280;18549;42.286;22.688;2024-02-15T06:10:24;96181.03;;;5.82
32039;BMP280;18549;42.286;22.688;2024-02-15T06:12:52;96185.84;;;5.85
32039;BMP280;18549;42.286;22.688;2024-02-15T06:15:21;96187.22;;;5.92
32039;BMP280;18549;42.286;22.688;2024-02-15T06:17:50;96186.47;;;5.90
32039;BMP280;18549;42.286;22.688;2024-02-15T06:20:17;96185.41;;;5.96
32039;BMP280;18549;42.286;22.688;2024-02-15T06:22:46;96195.00;;;6.02
32039;BMP280;18549;42.286;22.688;2024-02-15T06:25:15;96191.66;;;6.05
32039;BMP280;18549;42.286;22.688;2024-02-15T06:27:45;96194.16;;;6.03
32039;BMP280;18549;42.286;22.688;2024-02-15T06:30:15;96197.28;;;6.07
32039;BMP280;18549;42.286;22.688;2024-02-15T06:32:59;96206.34;;;6.06
32039;BMP280;18549;42.286;22.688;2024-02-15T06:35:44;96208.50;;;6.14
32039;BMP280;18549;42.286;22.688;2024-02-15T06:38:30;96205.50;;;6.07
32039;BMP280;18549;42.286;22.688;2024-02-15T06:41:16;96207.13;;;6.07
32039;BMP280;18549;42.286;22.688;2024-02-15T06:43:46;96198.63;;;6.15
32039;BMP280;18549;42.286;22.688;2024-02-15T06:46:15;96200.13;;;6.19
32039;BMP280;18549;42.286;22.688;2024-02-15T06:48:44;96205.13;;;6.16
32039;BMP280;18549;42.286;22.688;2024-02-15T06:51:14;96207.38;;;6.22
32039;BMP280;18549;42.286;22.688;2024-02-15T06:53:41;96198.56;;;6.17
32039;BMP280;18549;42.286;22.688;2024-02-15T06:56:09;96190.78;;;6.27
32039;BMP280;18549;42.286;22.688;2024-02-15T06:58:40;96200.41;;;6.33
32039;BMP280;18549;42.286;22.688;2024-02-15T07:01:07;96198.13;;;6.28
32039;BMP280;18549;42.286;22.688;2024-02-15T07:03:37;96202.78;;;6.34
32039;BMP280;18549;42.286;22.688;2024-02-15T07:06:06;96200.16;;;6.39
32039;BMP280;18549;42.286;22.688;2024-02-15T07:08:35;96201.31;;;6.52
32039;BMP280;18549;42.286;22.688;2024-02-15T07:11:03;96206.78;;;6.58
32039;BMP280;18549;42.286;22.688;2024-02-15T07:13:31;96202.19;;;6.70
32039;BMP280;18549;42.286;22.688;2024-02-15T07:16:00;96209.09;;;6.82
32039;BMP280;18549;42.286;22.688;2024-02-15T07:18:27;96205.59;;;6.88
32039;BMP280;18549;42.286;22.688;2024-02-15T07:20:54;96203.78;;;6.91
32039;BMP280;18549;42.286;22.688;2024-02-15T07:23:23;96200.03;;;7.02
32039;BMP280;18549;42.286;22.688;2024-02-15T07:25:50;96196.41;;;7.11
32039;BMP280;18549;42.286;22.688;2024-02-15T07:28:20;96197.75;;;7.18
32039;BMP280;18549;42.286;22.688;2024-02-15T07:30:51;96196.03;;;7.20
32039;BMP280;18549;42.286;22.688;2024-02-15T07:33:22;96194.41;;;7.19
32039;BMP280;18549;42.286;22.688;2024-02-15T07:35:50;96187.84;;;7.19
32039;BMP280;18549;42.286;22.688;2024-02-15T07:38:18;96176.69;;;7.11
32039;BMP280;18549;42.286;22.688;2024-02-15T07:40:49;96183.63;;;7.21
32039;BMP280;18549;42.286;22.688;2024-02-15T07:43:15;96177.72;;;7.25
32039;BMP280;18549;42.286;22.688;2024-02-15T07:45:42;96178.50;;;7.25
32039;BMP280;18549;42.286;22.688;2024-02-15T07:48:10;96174.69;;;7.38
32039;BMP280;18549;42.286;22.688;2024-02-15T07:50:40;96169.59;;;7.41
32039;BMP280;18549;42.286;22.688;2024-02-15T07:53:09;96166.91;;;7.47
32039;BMP280;18549;42.286;22.688;2024-02-15T07:55:36;96164.97;;;7.54
32039;BMP280;18549;42.286;22.688;2024-02-15T07:58:05;96172.81;;;7.61
32039;BMP280;18549;42.286;22.688;2024-02-15T08:00:33;96171.28;;;7.59
32039;BMP280;18549;42.286;22.688;2024-02-15T08:03:02;96173.75;;;7.59
32039;BMP280;18549;42.286;22.688;2024-02-15T08:05:30;96168.38;;;7.69
32039;BMP280;18549;42.286;22.688;2024-02-15T08:08:01;96165.75;;;7.54
32039;BMP280;18549;42.286;22.688;2024-02-15T08:10:29;96163.50;;;7.68
32039;BMP280;18549;42.286;22.688;2024-02-15T08:12:56;96161.63;;;7.73
32039;BMP280;18549;42.286;22.688;2024-02-15T08:15:25;96171.09;;;7.82
32039;BMP280;18549;42.286;22.688;2024-02-15T08:17:54;96161.38;;;7.79
32039;BMP280;18549;42.286;22.688;2024-02-15T08:20:21;96166.16;;;7.82
32039;BMP280;18549;42.286;22.688;2024-02-15T08:22:49;96162.56;;;7.88
32039;BMP280;18549;42.286;22.688;2024-02-15T08:25:17;96162.31;;;7.94
32039;BMP280;18549;42.286;22.688;2024-02-15T08:27:48;96145.88;;;8.12
32039;BMP280;18549;42.286;22.688;2024-02-15T08:30:17;96147.94;;;8.21
32039;BMP280;18549;42.286;22.688;2024-02-15T08:32:46;96149.03;;;8.32
32039;BMP280;18549;42.286;22.688;2024-02-15T08:35:13;96150.94;;;8.44
32039;BMP280;18549;42.286;22.688;2024-02-15T08:37:42;96140.47;;;8.55
32039;BMP280;18549;42.286;22.688;2024-02-15T08:40:12;96139.97;;;8.66
32039;BMP280;18549;42.286;22.688;2024-02-15T08:42:43;96141.56;;;8.67
32039;BMP280;18549;42.286;22.688;2024-02-15T08:45:12;96129.09;;;8.70
32039;BMP280;18549;42.286;22.688;2024-02-15T08:47:41;96129.87;;;8.70
32039;BMP280;18549;42.286;22.688;2024-02-15T08:50:09;96132.41;;;8.86
32039;BMP280;18549;42.286;22.688;2024-02-15T08:52:36;96132.69;;;8.96
32039;BMP280;18549;42.286;22.688;2024-02-15T08:55:06;96129.75;;;9.05
32039;BMP280;18549;42.286;22.688;2024-02-15T08:57:37;96123.06;;;9.07
32039;BMP280;18549;42.286;22.688;2024-02-15T09:00:13;96123.25;;;9.20
32039;BMP280;18549;42.286;22.688;2024-02-15T09:02:43;96118.28;;;9.20
32039;BMP280;18549;42.286;22.688;2024-02-15T09:05:10;96112.94;;;9.44
32039;BMP280;18549;42.286;22.688;2024-02-15T09:07:41;96116.63;;;9.52
32039;BMP280;18549;42.286;22.688;2024-02-15T09:10:09;96115.59;;;9.87
32039;BMP280;18549;42.286;22.688;2024-02-15T09:12:36;96108.09;;;10.03
32039;BMP280;18549;42.286;22.688;2024-02-15T09:15:06;96112.63;;;10.11
32039;BMP280;18549;42.286;22.688;2024-02-15T09:17:37;96110.38;;;10.21
32039;BMP280;18549;42.286;22.688;2024-02-15T09:20:07;96110.09;;;9.97
32039;BMP280;18549;42.286;22.688;2024-02-15T09:22:42;96104.06;;;9.86
32039;BMP280;18549;42.286;22.688;2024-02-15T09:25:10;96110.38;;;10.06
32039;BMP280;18549;42.286;22.688;2024-02-15T09:27:41;96103.34;;;10.29
32039;BMP280;18549;42.286;22.688;2024-02-15T09:30:09;96102.41;;;10.46
32039;BMP280;18549;42.286;22.688;2024-02-15T09:32:39;96094.25;;;10.44
32039;BMP280;18549;42.286;22.688;2024-02-15T09:35:08;96091.28;;;10.53
32039;BMP280;18549;42.286;22.688;2024-02-15T09:37:37;96092.03;;;10.68
32039;BMP280;18549;42.286;22.688;2024-02-15T09:40:11;96089.00;;;10.77
32039;BMP280;18549;42.286;22.688;2024-02-15T09:42:38;96078.75;;;10.83
32039;BMP280;18549;42.286;22.688;2024-02-15T09:45:06;96077.50;;;10.90
32039;BMP280;18549;42.286;22.688;2024-02-15T09:47:34;96082.13;;;10.96
32039;BMP280;18549;42.286;22.688;2024-02-15T09:52:33;96070.97;;;11.17
32039;BMP280;18549;42.286;22.688;2024-02-15T09:55:02;96073.91;;;11.09
32039;BMP280;18549;42.286;22.688;2024-02-15T09:57:31;96063.88;;;11.11
32039;BMP280;18549;42.286;22.688;2024-02-15T09:59:59;96061.13;;;11.01
32039;BMP280;18549;42.286;22.688;2024-02-15T10:02:30;96057.94;;;10.86
32039;BMP280;18549;42.286;22.688;2024-02-15T10:04:58;96051.41;;;10.98
32039;BMP280;18549;42.286;22.688;2024-02-15T10:07:31;96039.25;;;11.21
32039;BMP280;18549;42.286;22.688;2024-02-15T10:10:14;96047.47;;;11.22
32039;BMP280;18549;42.286;22.688;2024-02-15T10:12:43;96034.34;;;11.20
32039;BMP280;18549;42.286;22.688;2024-02-15T10:15:27;96033.94;;;11.27
32039;BMP280;18549;42.286;22.688;2024-02-15T10:17:56;96032.28;;;11.40
32039;BMP280;18549;42.286;22.688;2024-02-15T10:20:25;96038.47;;;11.61
32039;BMP280;18549;42.286;22.688;2024-02-15T10:23:09;96025.25;;;11.86
32039;BMP280;18549;42.286;22.688;2024-02-15T10:25:36;96017.56;;;12.03
32039;BMP280;18549;42.286;22.688;2024-02-15T10:28:04;96016.09;;;12.13
32039;BMP280;18549;42.286;22.688;2024-02-15T10:30:33;96020.59;;;12.20
32039;BMP280;18549;42.286;22.688;2024-02-15T10:33:02;96004.72;;;12.35
32039;BMP280;18549;42.286;22.688;2024-02-15T10:35:31;95997.16;;;12.49
32039;BMP280;18549;42.286;22.688;2024-02-15T10:38:07;95994.66;;;12.61
32039;BMP280;18549;42.286;22.688;2024-02-15T10:40:35;95993.59;;;12.53
32039;BMP280;18549;42.286;22.688;2024-02-15T10:43:04;95990.19;;;12.54
32039;BMP280;18549;42.286;22.688;2024-02-15T10:45:32;95989.81;;;12.72
32039;BMP280;18549;42.286;22.688;2024-02-15T10:48:00;95979.84;;;12.97
32039;BMP280;18549;42.286;22.688;2024-02-15T10:50:26;95979.31;;;13.17
32039;BMP280;18549;42.286;22.688;2024-02-15T10:52:55;95974.88;;;13.32
32039;BMP280;18549;42.286;22.688;2024-02-15T10:55:35;95969.34;;;13.52
32039;BMP280;18549;42.286;22.688;2024-02-15T10:58:07;95966.69;;;13.66
32039;BMP280;18549;42.286;22.688;2024-02-15T11:00:35;95972.31;;;13.57
32039;BMP280;18549;42.286;22.688;2024-02-15T11:03:07;95973.84;;;13.70
32039;BMP280;18549;42.286;22.688;2024-02-15T11:05:36;95967.34;;;13.91
32039;BMP280;18549;42.286;22.688;2024-02-15T11:08:07;95968.44;;;13.99
32039;BMP280;18549;42.286;22.688;2024-02-15T11:10:38;95961.66;;;14.12
32039;BMP280;18549;42.286;22.688;2024-02-15T11:13:06;95961.31;;;14.06
32039;BMP280;18549;42.286;22.688;2024-02-15T11:15:44;95958.75;;;14.18
32039;BMP280;18549;42.286;22.688;2024-02-15T11:18:41;95952.72;;;14.10
32039;BMP280;18549;42.286;22.688;2024-02-15T11:21:09;95949.03;;;14.37
32039;BMP280;18549;42.286;22.688;2024-02-15T11:23:36;95936.13;;;14.64
32039;BMP280;18549;42.286;22.688;2024-02-15T11:26:08;95942.72;;;14.87
32039;BMP280;18549;42.286;22.688;2024-02-15T11:28:38;95937.25;;;15.04
32039;BMP280;18549;42.286;22.688;2024-02-15T11:31:09;95934.62;;;15.05
32039;BMP280;18549;42.286;22.688;2024-02-15T11:33:39;95940.19;;;15.19
32039;BMP280;18549;42.286;22.688;2024-02-15T11:36:11;95939.37;;;15.41
32039;BMP280;18549;42.286;22.688;2024-02-15T11:38:40;95935.97;;;15.42
32039;BMP280;18549;42.286;22.688;2024-02-15T11:41:18;95937.97;;;14.95
32039;BMP280;18549;42.286;22.688;2024-02-15T11:43:53;95928.63;;;15.08
32039;BMP280;18549;42.286;22.688;2024-02-15T11:46:25;95934.97;;;15.01
32039;BMP280;18549;42.286;22.688;2024-02-15T11:48:56;95930.34;;;15.18
32039;BMP280;18549;42.286;22.688;2024-02-15T11:51:29;95931.03;;;15.51
32039;BMP280;18549;42.286;22.688;2024-02-15T11:54:20;95928.41;;;15.63
32039;BMP280;18549;42.286;22.688;2024-02-15T11:56:54;95925.06;;;15.94
32039;BMP280;18549;42.286;22.688;2024-02-15T11:59:39;95925.16;;;16.03
32039;BMP280;18549;42.286;22.688;2024-02-15T12:02:19;95927.94;;;16.20
32039;BMP280;18549;42.286;22.688;2024-02-15T12:05:05;95925.44;;;16.20
32039;BMP280;18549;42.286;22.688;2024-02-15T12:07:50;95921.78;;;16.34
32039;BMP280;18549;42.286;22.688;2024-02-15T12:10:34;95908.81;;;16.40
32039;BMP280;18549;42.286;22.688;2024-02-15T12:13:24;95920.03;;;16.25
32039;BMP280;18549;42.286;22.688;2024-02-15T12:16:09;95907.03;;;16.31
32039;BMP280;18549;42.286;22.688;2024-02-15T12:18:53;95905.91;;;15.83
32039;BMP280;18549;42.286;22.688;2024-02-15T12:21:22;95912.53;;;15.84
32039;BMP280;18549;42.286;22.688;2024-02-15T12:23:52;95914.06;;;15.65
32039;BMP280;18549;42.286;22.688;2024-02-15T12:26:19;95900.06;;;15.74
32039;BMP280;18549;42.286;22.688;2024-02-15T12:28:55;95906.28;;;15.59
32039;BMP280;18549;42.286;22.688;2024-02-15T12:31:24;95915.87;;;15.32
32039;BMP280;18549;42.286;22.688;2024-02-15T12:34:03;95914.25;;;15.11
32039;BMP280;18549;42.286;22.688;2024-02-15T12:36:32;95914.91;;;14.91
32039;BMP280;18549;42.286;22.688;2024-02-15T12:38:59;95914.47;;;14.76
32039;BMP280;18549;42.286;22.688;2024-02-15T12:41:28;95910.06;;;14.57
32039;BMP280;18549;42.286;22.688;2024-02-15T12:43:59;95913.56;;;14.44
32039;BMP280;18549;42.286;22.688;2024-02-15T12:46:29;95914.66;;;14.18
32039;BMP280;18549;42.286;22.688;2024-02-15T12:49:27;95906.19;;;13.87
32039;BMP280;18549;42.286;22.688;2024-02-15T12:52:34;95906.38;;;13.73
32039;BMP280;18549;42.286;22.688;2024-02-15T12:55:12;95909.50;;;13.64
32039;BMP280;18549;42.286;22.688;2024-02-15T12:57:40;95903.00;;;13.51
32039;BMP280;18549;42.286;22.688;2024-02-15T13:00:12;95902.97;;;13.40
32039;BMP280;18549;42.286;22.688;2024-02-15T13:02:45;95900.41;;;13.29
32039;BMP280;18549;42.286;22.688;2024-02-15T13:05:14;95891.25;;;13.30
32039;BMP280;18549;42.286;22.688;2024-02-15T13:07:42;95896.34;;;13.28
32039;BMP280;18549;42.286;22.688;2024-02-15T13:10:09;95890.69;;;13.26
32039;BMP280;18549;42.286;22.688;2024-02-15T13:12:36;95891.72;;;13.12
32039;BMP280;18549;42.286;22.688;2024-02-15T13:15:04;95892.63;;;13.11
32039;BMP280;18549;42.286;22.688;2024-02-15T13:17:38;95888.38;;;13.00
32039;BMP280;18549;42.286;22.688;2024-02-15T13:20:07;95885.78;;;13.02
32039;BMP280;18549;42.286;22.688;2024-02-15T13:22:37;95882.59;;;13.00
32039;BMP280;18549;42.286;22.688;2024-02-15T13:25:05;95889.31;;;12.87
32039;BMP280;18549;42.286;22.688;2024-02-15T13:27:35;95876.38;;;12.94
32039;BMP280;18549;42.286;22.688;2024-02-15T13:30:05;95882.12;;;12.95
32039;BMP280;18549;42.286;22.688;2024-02-15T13:32:36;95879.34;;;12.87
32039;BMP280;18549;42.286;22.688;2024-02-15T13:35:06;95878.78;;;12.71
32039;BMP280;18549;42.286;22.688;2024-02-15T13:37:42;95880.59;;;12.57
32039;BMP280;18549;42.286;22.688;2024-02-15T13:40:10;95881.19;;;12.60
32039;BMP280;18549;42.286;22.688;2024-02-15T13:42:43;95879.88;;;12.67
32039;BMP280;18549;42.286;22.688;2024-02-15T13:45:16;95872.91;;;12.72
32039;BMP280;18549;42.286;22.688;2024-02-15T13:47:45;95875.28;;;12.74
32039;BMP280;18549;42.286;22.688;2024-02-15T13:50:14;95874.38;;;12.75
32039;BMP280;18549;42.286;22.688;2024-02-15T13:52:42;95877.78;;;12.61
32039;BMP280;18549;42.286;22.688;2024-02-15T13:55:11;95873.34;;;12.54
32039;BMP280;18549;42.286;22.688;2024-02-15T13:57:40;95870.47;;;12.48
32039;BMP280;18549;42.286;22.688;2024-02-15T14:00:09;95877.91;;;12.48
32039;BMP280;18549;42.286;22.688;2024-02-15T14:02:40;95880.19;;;12.51
32039;BMP280;18549;42.286;22.688;2024-02-15T14:05:08;95873.25;;;12.55
32039;BMP280;18549;42.286;22.688;2024-02-15T14:07:39;95874.03;;;12.56
32039;BMP280;18549;42.286;22.688;2024-02-15T14:10:06;95882.50;;;12.53
32039;BMP280;18549;42.286;22.688;2024-02-15T14:12:33;95884.69;;;12.46
32039;BMP280;18549;42.286;22.688;2024-02-15T14:15:03;95874.03;;;12.44
32039;BMP280;18549;42.286;22.688;2024-02-15T14:17:34;95878.03;;;12.34
32039;BMP280;18549;42.286;22.688;2024-02-15T14:20:04;95882.91;;;12.23
32039;BMP280;18549;42.286;22.688;2024-02-15T14:22:34;95880.94;;;12.28